Time;durP1;ratioP1;P1;durP2;ratioP2;P2;SDS_P1;SDS_P2;PMS_P1;PMS_P2;Temp;Humidity;BMP_temperature;BMP_pressure;BME280_temperature;BME280_humidity;BME280_pressure;Samples;Min_cycle;Max_cycle;Signal;HPM_P1;HPM_P2
2021/12/22 00:01:51;;;;;;;17.75;10.90;;;-3.60;99.90;;;;;;4813876;29;21013;-95
2021/12/22 00:04:17;;;;;;;15.13;10.80;;;-3.70;99.90;;;;;;4825994;29;20274;-94
2021/12/22 00:06:43;;;;;;;14.82;10.45;;;-3.80;99.90;;;;;;4810322;29;20337;-94
2021/12/22 00:09:09;;;;;;;16.77;12.33;;;-3.80;99.90;;;;;;4827027;29;20294;-96
2021/12/22 00:11:34;;;;;;;17.65;12.18;;;-3.80;99.90;;;;;;4833258;29;20472;-95
2021/12/22 00:14:02;;;;;;;14.95;11.10;;;-3.80;99.90;;;;;;4820627;29;20191;-95
2021/12/22 00:16:28;;;;;;;16.50;11.20;;;-3.70;99.90;;;;;;4813648;29;20475;-94
2021/12/22 00:18:54;;;;;;;12.03;9.47;;;-3.60;99.90;;;;;;4829164;29;21663;-95
2021/12/22 00:21:20;;;;;;;14.40;10.37;;;-3.80;99.90;;;;;;4812073;29;20817;-93
2021/12/22 00:23:46;;;;;;;13.70;9.68;;;-3.80;99.90;;;;;;4827579;29;20226;-93
2021/12/22 00:26:16;;;;;;;13.20;10.45;;;-3.80;99.90;;;;;;4797119;29;20476;-93
2021/12/22 00:28:42;;;;;;;14.57;11.82;;;-3.80;99.90;;;;;;4806791;29;20218;-92
2021/12/22 00:31:13;;;;;;;12.82;10.13;;;-3.80;99.90;;;;;;4812144;29;20748;-94
2021/12/22 00:33:45;;;;;;;18.33;11.60;;;-3.80;99.90;;;;;;4823783;29;20215;-94
2021/12/22 00:36:14;;;;;;;16.40;10.27;;;-3.80;99.90;;;;;;4810502;29;20289;-94
2021/12/22 00:38:40;;;;;;;14.15;9.85;;;-3.70;99.90;;;;;;4812056;29;20320;-94
2021/12/22 00:41:09;;;;;;;15.20;10.80;;;-3.80;99.90;;;;;;4814979;29;20187;-94
2021/12/22 00:43:38;;;;;;;15.45;11.00;;;-3.90;99.90;;;;;;4811905;29;20201;-94
2021/12/22 00:46:07;;;;;;;14.88;10.73;;;-3.90;99.90;;;;;;4815894;29;20209;-94
2021/12/22 00:48:33;;;;;;;18.42;10.82;;;-3.90;99.90;;;;;;4814652;29;20229;-93
2021/12/22 00:50:59;;;;;;;16.63;11.77;;;-4.00;99.90;;;;;;4811468;29;20183;-95
2021/12/22 00:53:27;;;;;;;13.70;10.27;;;-4.00;99.90;;;;;;4815394;29;20460;-95
2021/12/22 00:55:53;;;;;;;17.95;11.07;;;-4.00;99.90;;;;;;4816877;29;20207;-96
2021/12/22 00:58:20;;;;;;;14.95;10.73;;;-4.00;99.90;;;;;;4828457;29;20214;-95
2021/12/22 01:00:48;;;;;;;16.95;11.43;;;-4.00;99.90;;;;;;4814016;29;20186;-95
2021/12/22 01:03:21;;;;;;;16.13;10.73;;;-4.00;99.90;;;;;;4815574;29;20292;-95
2021/12/22 01:05:47;;;;;;;14.95;11.32;;;-4.00;99.90;;;;;;4812710;29;20202;-95
2021/12/22 01:08:13;;;;;;;16.83;11.65;;;-3.90;99.90;;;;;;4813702;29;20240;-94
2021/12/22 01:10:39;;;;;;;16.27;11.45;;;-3.90;99.90;;;;;;4807633;29;20198;-95
2021/12/22 01:13:06;;;;;;;16.40;11.80;;;-4.00;99.90;;;;;;4819307;29;20241;-96
2021/12/22 01:15:34;;;;;;;16.70;11.90;;;-4.00;99.90;;;;;;4820014;29;21007;-94
2021/12/22 01:18:11;;;;;;;17.02;11.38;;;-3.90;99.90;;;;;;4802149;29;20243;-94
2021/12/22 01:21:09;;;;;;;25.58;13.38;;;-3.90;99.90;;;;;;4802623;29;20200;-93
2021/12/22 01:23:24;;;;;;;19.08;11.93;;;-4.10;99.90;;;;;;4818455;29;20229;-94
2021/12/22 01:25:50;;;;;;;18.20;12.90;;;-4.10;99.90;;;;;;4803266;29;21221;-94
2021/12/22 01:28:18;;;;;;;15.27;11.10;;;-4.10;99.90;;;;;;4802075;29;21025;-95
2021/12/22 01:30:48;;;;;;;15.60;10.68;;;-4.20;99.90;;;;;;4808008;29;20421;-94
2021/12/22 01:33:15;;;;;;;19.10;12.63;;;-4.20;99.90;;;;;;4819831;29;20301;-94
2021/12/22 01:35:42;;;;;;;18.98;12.85;;;-4.30;99.90;;;;;;4819815;29;20263;-94
2021/12/22 01:38:07;;;;;;;19.23;13.82;;;-4.40;99.90;;;;;;4816641;29;20194;-94
2021/12/22 01:40:38;;;;;;;26.53;13.90;;;-4.30;99.90;;;;;;4807372;29;20206;-94
2021/12/22 01:43:05;;;;;;;22.70;12.80;;;-4.30;99.90;;;;;;4819005;29;20199;-93
2021/12/22 01:51:54;;;;;;;19.70;12.82;;;-4.20;99.90;;;;;;4822215;29;20224;-95
2021/12/22 01:54:21;;;;;;;20.05;13.00;;;-4.30;99.90;;;;;;4824829;29;20194;-95
2021/12/22 01:56:54;;;;;;;20.02;14.23;;;-4.30;99.90;;;;;;4820727;29;20200;-95
2021/12/22 01:59:21;;;;;;;21.27;12.63;;;-4.30;99.90;;;;;;4811032;29;20222;-96
2021/12/22 02:01:47;;;;;;;17.90;12.35;;;-4.30;99.90;;;;;;4815862;29;20262;-94
2021/12/22 02:04:16;;;;;;;20.08;12.73;;;-4.30;99.90;;;;;;4806780;29;20206;-95
2021/12/22 02:06:44;;;;;;;17.75;12.70;;;-4.30;99.90;;;;;;4807951;29;20198;-95
2021/12/22 02:09:12;;;;;;;18.67;11.55;;;-4.30;99.90;;;;;;4806588;29;20209;-95
2021/12/22 02:11:38;;;;;;;17.40;11.70;;;-4.40;99.90;;;;;;4800960;29;20218;-94
2021/12/22 02:14:16;;;;;;;20.00;13.13;;;-4.40;99.90;;;;;;4798364;29;20452;-94
2021/12/22 02:16:52;;;;;;;19.75;11.85;;;-4.30;99.90;;;;;;4816996;29;20194;-95
2021/12/22 02:19:18;;;;;;;22.13;12.82;;;-4.50;99.90;;;;;;4804899;29;20215;-94
2021/12/22 02:21:50;;;;;;;17.73;11.53;;;-4.40;99.90;;;;;;4804797;29;20230;-95
2021/12/22 02:24:16;;;;;;;16.52;11.00;;;-4.50;99.90;;;;;;4807314;29;20218;-96
2021/12/22 02:26:51;;;;;;;15.73;10.90;;;-4.50;99.90;;;;;;4806568;29;21043;-95
2021/12/22 02:29:23;;;;;;;15.88;11.00;;;-4.70;99.90;;;;;;4808213;29;20619;-95
2021/12/22 02:32:07;;;;;;;18.63;11.30;;;-4.70;99.90;;;;;;4808068;29;20925;-95
2021/12/22 02:34:40;;;;;;;16.48;11.30;;;-4.70;99.90;;;;;;4822898;29;20691;-95
2021/12/22 02:37:11;;;;;;;20.10;12.60;;;-4.70;99.90;;;;;;4810373;29;20213;-95
2021/12/22 02:39:37;;;;;;;18.38;11.50;;;-4.70;99.90;;;;;;4810428;29;20202;-94
2021/12/22 02:42:09;;;;;;;17.10;11.67;;;-4.70;99.90;;;;;;4824980;29;20206;-95
2021/12/22 02:44:37;;;;;;;14.55;11.73;;;-4.70;99.90;;;;;;4813432;29;20492;-95
2021/12/22 02:47:18;;;;;;;17.08;12.43;;;-4.80;99.90;;;;;;4801932;29;20283;-95
2021/12/22 02:49:47;;;;;;;17.92;11.63;;;-4.80;99.90;;;;;;4819850;29;20210;-96
2021/12/22 02:52:13;;;;;;;18.38;11.75;;;-4.90;99.90;;;;;;4800826;29;20254;-95
2021/12/22 02:54:56;;;;;;;17.05;11.65;;;-4.90;99.90;;;;;;4818653;29;20236;-96
2021/12/22 02:57:32;;;;;;;16.45;11.48;;;-4.80;99.90;;;;;;4826225;29;20217;-96
2021/12/22 03:05:23;;;;;;;18.92;11.23;;;-4.70;99.90;;;;;;4822531;29;20674;-94
2021/12/22 03:07:49;;;;;;;17.35;11.48;;;-4.70;99.90;;;;;;4812753;29;20764;-94
2021/12/22 03:10:18;;;;;;;21.17;12.53;;;-4.80;99.90;;;;;;4810971;29;20358;-96
2021/12/22 03:12:52;;;;;;;20.08;11.48;;;-4.80;99.90;;;;;;4806164;29;20197;-96
2021/12/22 03:15:19;;;;;;;18.70;12.35;;;-4.90;99.90;;;;;;4802678;29;20206;-96
2021/12/22 03:17:47;;;;;;;15.95;11.55;;;-4.90;99.90;;;;;;4820504;29;20200;-94
2021/12/22 03:20:14;;;;;;;19.48;12.73;;;-4.90;99.90;;;;;;4795539;29;21937;-95
2021/12/22 03:22:45;;;;;;;18.80;12.35;;;-4.90;99.90;;;;;;4803309;29;20221;-96
2021/12/22 03:25:17;;;;;;;15.75;11.18;;;-4.90;99.90;;;;;;4797733;29;20237;-94
2021/12/22 03:27:49;;;;;;;20.05;11.48;;;-5.00;99.90;;;;;;4804768;29;20229;-95
2021/12/22 03:30:20;;;;;;;16.55;10.88;;;-5.00;99.90;;;;;;4806980;29;20999;-95
2021/12/22 03:32:48;;;;;;;20.48;11.48;;;-4.90;99.90;;;;;;4809130;29;20205;-96
2021/12/22 03:35:19;;;;;;;17.80;11.35;;;-4.90;99.90;;;;;;4812112;29;20394;-96
2021/12/22 03:37:53;;;;;;;16.13;11.32;;;-5.00;99.90;;;;;;4811662;29;20207;-95
2021/12/22 03:40:21;;;;;;;15.13;9.77;;;-5.00;99.90;;;;;;4810889;29;20192;-93
2021/12/22 03:42:47;;;;;;;15.70;11.75;;;-4.90;99.90;;;;;;4807977;29;20213;-93
2021/12/22 03:45:14;;;;;;;19.45;12.65;;;-4.90;99.90;;;;;;4822958;29;20573;-96
2021/12/22 03:47:40;;;;;;;19.73;12.55;;;-4.90;99.90;;;;;;4812285;29;20299;-94
2021/12/22 03:50:07;;;;;;;16.77;10.10;;;-5.00;99.90;;;;;;4813276;29;20226;-96
2021/12/22 03:52:33;;;;;;;15.68;11.52;;;-5.00;99.90;;;;;;4818052;29;20554;-96
2021/12/22 03:54:59;;;;;;;19.53;12.33;;;-5.00;99.90;;;;;;4816761;29;20197;-95
2021/12/22 03:57:29;;;;;;;18.70;12.07;;;-5.10;99.90;;;;;;4811597;29;20475;-95
2021/12/22 03:59:58;;;;;;;19.75;11.68;;;-5.00;99.90;;;;;;4811590;29;20209;-95
2021/12/22 04:02:24;;;;;;;20.55;13.25;;;-5.00;99.90;;;;;;4813213;29;20213;-94
2021/12/22 04:04:51;;;;;;;21.52;12.35;;;-5.00;99.90;;;;;;4823240;29;20235;-95
2021/12/22 04:07:17;;;;;;;18.85;11.57;;;-4.90;99.90;;;;;;4825272;29;20211;-94
2021/12/22 04:09:43;;;;;;;16.45;11.80;;;-4.90;99.90;;;;;;4824070;29;20214;-94
2021/12/22 04:12:09;;;;;;;19.27;12.00;;;-5.00;99.90;;;;;;4809784;29;20293;-94
2021/12/22 04:14:35;;;;;;;19.85;11.25;;;-5.00;99.90;;;;;;4825593;29;20232;-95
2021/12/22 04:17:03;;;;;;;17.37;11.70;;;-5.00;99.90;;;;;;4817926;29;20205;-95
2021/12/22 04:19:29;;;;;;;16.20;11.73;;;-5.00;99.90;;;;;;4811947;29;20397;-94
2021/12/22 04:21:55;;;;;;;15.05;11.70;;;-5.00;99.90;;;;;;4811524;29;20229;-94
2021/12/22 04:24:22;;;;;;;20.10;12.40;;;-4.90;99.90;;;;;;4812650;29;20265;-94
2021/12/22 04:26:50;;;;;;;17.40;12.00;;;-5.00;99.90;;;;;;4815301;29;20209;-95
2021/12/22 04:29:19;;;;;;;16.70;12.23;;;-5.10;99.90;;;;;;4821329;29;20782;-95
2021/12/22 04:31:45;;;;;;;19.45;12.80;;;-5.10;99.90;;;;;;4821128;29;20306;-96
2021/12/22 04:34:22;;;;;;;19.20;12.30;;;-5.10;99.90;;;;;;4824736;29;20223;-96
2021/12/22 04:36:47;;;;;;;19.50;11.82;;;-5.20;99.90;;;;;;4826033;29;20457;-95
2021/12/22 04:39:13;;;;;;;15.83;10.60;;;-5.30;99.90;;;;;;4822090;29;20203;-96
2021/12/22 04:41:41;;;;;;;16.73;11.05;;;-5.30;99.90;;;;;;4833008;29;20193;-96
2021/12/22 04:44:06;;;;;;;20.03;12.10;;;-5.40;99.90;;;;;;4819101;29;20229;-95
2021/12/22 04:46:32;;;;;;;25.00;12.60;;;-5.50;99.90;;;;;;4827401;29;20577;-95
2021/12/22 04:48:58;;;;;;;21.73;12.70;;;-5.50;99.90;;;;;;4823906;29;20226;-96
2021/12/22 04:51:29;;;;;;;20.63;12.30;;;-5.40;99.90;;;;;;4811267;29;20611;-95
2021/12/22 04:54:05;;;;;;;19.35;12.10;;;-5.30;99.90;;;;;;4811494;29;20518;-95
2021/12/22 04:56:31;;;;;;;21.15;11.82;;;-5.30;99.90;;;;;;4813409;29;20217;-95
2021/12/22 04:58:57;;;;;;;18.38;13.07;;;-5.30;99.90;;;;;;4830968;29;20270;-96
2021/12/22 05:01:23;;;;;;;19.33;11.70;;;-5.40;99.90;;;;;;4833239;29;20297;-96
2021/12/22 05:03:53;;;;;;;19.87;11.67;;;-5.40;99.90;;;;;;4815372;29;24474;-96
2021/12/22 05:06:19;;;;;;;17.85;11.48;;;-5.40;99.90;;;;;;4814610;29;21121;-95
2021/12/22 05:08:45;;;;;;;18.50;11.10;;;-5.40;99.90;;;;;;4811955;29;20305;-95
2021/12/22 05:11:10;;;;;;;18.80;13.00;;;-5.30;99.90;;;;;;4822511;29;20599;-95
2021/12/22 05:13:36;;;;;;;17.83;12.20;;;-5.30;99.90;;;;;;4811147;29;20199;-95
2021/12/22 05:16:04;;;;;;;14.70;10.70;;;-5.30;99.90;;;;;;4801984;29;20219;-95
2021/12/22 05:18:47;;;;;;;18.00;11.25;;;-5.40;99.90;;;;;;4805512;29;20481;-95
2021/12/22 05:21:13;;;;;;;16.75;11.30;;;-5.40;99.90;;;;;;4804432;29;20210;-96
2021/12/22 05:23:38;;;;;;;16.87;11.50;;;-5.40;99.90;;;;;;4820102;29;20273;-96
2021/12/22 05:26:06;;;;;;;16.57;11.60;;;-5.40;99.90;;;;;;4810893;29;20286;-96
2021/12/22 05:28:34;;;;;;;18.70;12.20;;;-5.30;99.90;;;;;;4829069;29;20284;-96
2021/12/22 05:31:00;;;;;;;18.15;12.25;;;-5.40;99.90;;;;;;4812775;29;20201;-94
2021/12/22 05:33:26;;;;;;;17.73;11.00;;;-5.40;99.90;;;;;;4833247;29;20904;-96
2021/12/22 05:35:54;;;;;;;17.77;11.70;;;-5.40;99.90;;;;;;4809772;29;21024;-94
2021/12/22 05:38:20;;;;;;;16.58;10.90;;;-5.40;99.90;;;;;;4824174;29;20206;-95
2021/12/22 05:40:46;;;;;;;17.10;9.60;;;-5.40;99.90;;;;;;4825160;29;20579;-94
2021/12/22 05:43:14;;;;;;;22.45;12.63;;;-5.50;99.90;;;;;;4818202;29;20198;-96
2021/12/22 05:45:40;;;;;;;16.58;10.35;;;-5.60;99.90;;;;;;4816667;29;20661;-96
2021/12/22 05:48:06;;;;;;;16.73;9.90;;;-5.50;99.90;;;;;;4828295;29;20260;-94
2021/12/22 05:50:32;;;;;;;16.13;10.50;;;-5.60;99.90;;;;;;4807276;29;20447;-94
2021/12/22 05:52:58;;;;;;;18.60;10.83;;;-5.70;99.90;;;;;;4801685;29;20201;-92
2021/12/22 05:55:25;;;;;;;15.75;11.05;;;-5.80;99.90;;;;;;4811625;29;20451;-94
2021/12/22 05:57:51;;;;;;;18.17;10.43;;;-5.80;99.90;;;;;;4827381;29;20307;-91
2021/12/22 06:00:17;;;;;;;15.20;10.73;;;-5.80;99.90;;;;;;4811128;29;20286;-90
2021/12/22 06:02:43;;;;;;;16.20;11.52;;;-5.80;99.90;;;;;;4807888;29;20741;-93
2021/12/22 06:05:11;;;;;;;17.63;12.17;;;-5.80;99.90;;;;;;4827043;29;21660;-90
2021/12/22 06:07:37;;;;;;;18.80;11.45;;;-5.70;99.90;;;;;;4825867;29;20753;-95
2021/12/22 06:10:05;;;;;;;17.67;12.10;;;-5.60;99.90;;;;;;4798292;29;20226;-88
2021/12/22 06:12:31;;;;;;;18.17;11.25;;;-5.60;99.90;;;;;;4804019;29;20455;-88
2021/12/22 06:14:59;;;;;;;17.77;11.30;;;-5.70;99.90;;;;;;4802383;29;20201;-89
2021/12/22 06:17:38;;;;;;;15.48;11.50;;;-5.80;99.90;;;;;;4814855;29;22026;-91
2021/12/22 06:20:05;;;;;;;18.23;11.75;;;-6.00;99.90;;;;;;4807959;29;20838;-90
2021/12/22 06:22:35;;;;;;;18.35;11.40;;;-6.00;99.90;;;;;;4816606;29;20306;-89
2021/12/22 06:25:09;;;;;;;21.23;12.77;;;-6.00;99.90;;;;;;4810463;29;20200;-93
2021/12/22 06:27:35;;;;;;;21.85;12.73;;;-6.10;99.90;;;;;;4814639;29;20242;-93
2021/12/22 06:30:07;;;;;;;20.47;11.70;;;-6.10;99.90;;;;;;4840619;29;20333;-96
2021/12/22 06:32:33;;;;;;;16.77;11.50;;;-6.10;99.90;;;;;;4830101;29;20476;-94
2021/12/22 06:34:59;;;;;;;22.70;12.47;;;-6.10;99.90;;;;;;4810591;29;20940;-93
2021/12/22 06:37:24;;;;;;;17.87;12.77;;;-6.20;99.90;;;;;;4815613;29;20696;-94
2021/12/22 06:40:03;;;;;;;21.70;13.57;;;-6.20;99.90;;;;;;4849476;29;20245;-96
2021/12/22 06:50:09;;;;;;;17.60;11.73;;;-6.00;99.90;;;;;;4874758;29;20228;-95
2021/12/22 06:52:35;;;;;;;16.13;11.48;;;-6.00;99.90;;;;;;4846290;29;20208;-93
2021/12/22 06:55:04;;;;;;;22.23;14.80;;;-5.90;99.90;;;;;;4846226;29;20762;-92
2021/12/22 06:58:02;;;;;;;25.23;15.65;;;-5.90;99.90;;;;;;4833734;29;20188;-94
2021/12/22 07:00:35;;;;;;;27.52;15.57;;;-5.90;99.90;;;;;;4865462;29;20218;-92
2021/12/22 07:03:03;;;;;;;45.55;26.00;;;-5.90;99.90;;;;;;4856958;29;20217;-92
2021/12/22 07:05:29;;;;;;;45.78;26.90;;;-5.80;99.90;;;;;;4849417;29;20210;-92
2021/12/22 07:07:57;;;;;;;37.33;24.70;;;-5.70;99.90;;;;;;4853962;29;20231;-92
2021/12/22 07:10:23;;;;;;;25.95;17.35;;;-5.60;99.90;;;;;;4846232;29;20283;-95
2021/12/22 07:12:58;;;;;;;27.40;15.57;;;-5.60;99.90;;;;;;4850655;29;20216;-95
2021/12/22 07:15:43;;;;;;;20.17;13.73;;;-5.50;99.90;;;;;;4844703;29;20204;-94
2021/12/22 07:18:26;;;;;;;;;;;;;;;;;;;;;
2021/12/22 07:21:03;;;;;;;18.67;12.23;;;-5.50;99.90;;;;;;4863881;29;20380;-92
2021/12/22 07:23:30;;;;;;;21.35;13.40;;;-5.50;99.90;;;;;;4848607;29;20210;-93
2021/12/22 07:25:59;;;;;;;21.33;13.60;;;-5.70;99.90;;;;;;4856928;29;20788;-95
2021/12/22 07:28:32;;;;;;;20.25;12.52;;;-5.70;99.90;;;;;;4845272;29;20240;-93
2021/12/22 07:31:04;;;;;;;19.17;12.15;;;-5.70;99.90;;;;;;4837066;29;20201;-93
2021/12/22 07:33:57;;;;;;;;;;;;;;;;;;;;;
2021/12/22 07:36:59;;;;;;;;;;;;;;;;;;;;;
2021/12/22 07:39:30;;;;;;;20.60;13.45;;;-5.60;99.90;;;;;;4851584;29;20209;-93
2021/12/22 07:42:09;;;;;;;19.08;14.05;;;-5.50;99.90;;;;;;4850930;29;21158;-93
2021/12/22 07:45:00;;;;;;;28.58;16.60;;;-5.50;99.90;;;;;;4849641;29;20223;-91
2021/12/22 07:47:42;;;;;;;25.55;16.17;;;-5.50;99.90;;;;;;4846440;29;20220;-93
2021/12/22 07:50:20;;;;;;;23.13;15.43;;;-5.40;99.90;;;;;;4854558;29;20252;-95
2021/12/22 07:52:47;;;;;;;25.98;15.50;;;-5.30;99.90;;;;;;4843455;29;20238;-94
2021/12/22 07:55:13;;;;;;;26.33;16.35;;;-5.30;99.90;;;;;;4858701;29;20212;-93
2021/12/22 07:57:38;;;;;;;25.20;16.63;;;-5.30;99.90;;;;;;4838253;29;20489;-91
2021/12/22 08:00:06;;;;;;;26.50;16.47;;;-5.40;99.90;;;;;;4826968;29;20412;-90
2021/12/22 08:02:31;;;;;;;27.02;16.17;;;-5.50;99.90;;;;;;4836010;29;20851;-91
2021/12/22 08:04:57;;;;;;;24.83;16.97;;;-5.50;99.90;;;;;;4858367;29;20676;-92
2021/12/22 08:07:23;;;;;;;22.67;15.60;;;-5.50;99.90;;;;;;4850017;29;20279;-92
2021/12/22 08:09:51;;;;;;;22.35;14.52;;;-5.40;99.90;;;;;;4865885;29;20556;-94
2021/12/22 08:12:17;;;;;;;27.63;15.35;;;-5.30;99.90;;;;;;4865148;29;20205;-90
2021/12/22 08:14:43;;;;;;;23.90;15.83;;;-5.10;99.90;;;;;;4842051;29;20325;-91
2021/12/22 08:17:10;;;;;;;27.23;16.10;;;-5.00;99.90;;;;;;4842881;29;22663;-92
2021/12/22 08:19:36;;;;;;;25.50;15.75;;;-4.90;99.90;;;;;;4864320;29;20252;-91
2021/12/22 08:22:03;;;;;;;26.63;16.30;;;-4.80;99.90;;;;;;4843539;29;20682;-91
2021/12/22 08:24:28;;;;;;;27.13;17.20;;;-4.60;99.90;;;;;;4832758;29;20228;-89
2021/12/22 08:26:54;;;;;;;30.23;19.30;;;-4.40;99.90;;;;;;4842337;29;20200;-92
2021/12/22 08:29:20;;;;;;;26.00;16.60;;;-4.20;99.90;;;;;;4843136;29;20612;-93
2021/12/22 08:31:51;;;;;;;27.73;17.50;;;-4.10;99.90;;;;;;4848974;29;20304;-92
2021/12/22 08:34:24;;;;;;;23.47;15.90;;;-3.40;99.90;;;;;;4847183;29;20233;-91
2021/12/22 08:39:34;;;;;;;21.20;15.67;;;-0.60;99.90;;;;;;4853543;29;20482;-92
2021/12/22 08:42:03;;;;;;;21.03;16.60;;;0.40;99.90;;;;;;4841780;29;20500;-96
2021/12/22 08:44:28;;;;;;;23.60;16.93;;;0.70;99.90;;;;;;4864873;29;20540;-95
2021/12/22 08:47:21;;;;;;;22.67;16.60;;;0.80;99.90;;;;;;4846962;29;20579;-89
2021/12/22 08:49:49;;;;;;;24.67;17.27;;;0.60;99.90;;;;;;4848624;29;20240;-92
2021/12/22 08:52:15;;;;;;;23.73;18.07;;;0.30;99.90;;;;;;4849468;29;21251;-90
2021/12/22 08:54:42;;;;;;;26.10;17.80;;;0.50;99.90;;;;;;4835346;29;20449;-89
2021/12/22 08:57:10;;;;;;;26.97;19.37;;;0.70;99.90;;;;;;4834057;29;20797;-90
2021/12/22 08:59:38;;;;;;;25.83;17.03;;;0.80;99.90;;;;;;4835807;29;20798;-91
2021/12/22 09:02:08;;;;;;;23.80;16.53;;;0.80;99.90;;;;;;4836847;29;20469;-90
2021/12/22 09:04:34;;;;;;;23.00;14.43;;;0.70;99.90;;;;;;4851251;29;20698;-90
2021/12/22 09:07:00;;;;;;;21.70;15.90;;;0.70;99.90;;;;;;4846076;29;20474;-90
2021/12/22 09:09:26;;;;;;;19.03;14.50;;;0.70;99.90;;;;;;4837260;29;20957;-91
2021/12/22 09:11:52;;;;;;;99.13;74.53;;;0.90;99.90;;;;;;4845407;29;20465;-89
2021/12/22 09:14:20;;;;;;;19.37;14.80;;;0.80;99.90;;;;;;4832793;29;20192;-90
2021/12/22 09:16:46;;;;;;;20.20;13.80;;;0.70;99.90;;;;;;4835910;29;21376;-93
2021/12/22 09:19:11;;;;;;;18.03;13.93;;;0.70;99.90;;;;;;4838019;29;20466;-93
2021/12/22 09:21:37;;;;;;;17.97;13.90;;;0.80;99.90;;;;;;4831802;29;20799;-91
2021/12/22 09:24:09;;;;;;;19.70;14.27;;;0.70;99.90;;;;;;4850625;29;20205;-91
2021/12/22 09:26:37;;;;;;;17.20;12.90;;;1.00;99.90;;;;;;4834383;29;21872;-92
2021/12/22 09:29:12;;;;;;;20.93;14.10;;;1.10;99.90;;;;;;4822437;29;20501;-91
2021/12/22 09:31:39;;;;;;;18.30;13.40;;;1.10;99.90;;;;;;4834726;29;20593;-92
2021/12/22 09:34:05;;;;;;;19.17;14.33;;;0.70;99.90;;;;;;4839239;29;20482;-93
2021/12/22 09:36:31;;;;;;;21.00;15.27;;;1.00;99.90;;;;;;4833670;29;20469;-93
2021/12/22 09:38:57;;;;;;;18.97;14.33;;;1.30;99.90;;;;;;4837281;29;20493;-92
2021/12/22 09:41:25;;;;;;;21.60;15.10;;;1.40;99.70;;;;;;4827950;29;20213;-92
2021/12/22 09:43:53;;;;;;;20.10;13.90;;;1.50;99.90;;;;;;4839479;29;21606;-94
2021/12/22 09:46:24;;;;;;;18.63;14.30;;;1.90;99.30;;;;;;4848851;29;20462;-91
2021/12/22 09:48:59;;;;;;;16.60;13.20;;;2.20;98.90;;;;;;4857499;29;20707;-94
2021/12/22 09:54:04;;;;;;;15.87;12.57;;;3.20;96.90;;;;;;4851413;29;20552;-93
2021/12/22 09:56:41;;;;;;;17.07;13.50;;;3.90;96.00;;;;;;4845974;29;20533;-93
2021/12/22 09:59:08;;;;;;;16.20;13.10;;;4.20;94.10;;;;;;4853344;29;20463;-91
2021/12/22 10:01:34;;;;;;;17.10;13.80;;;4.30;93.40;;;;;;4835329;29;20477;-92
2021/12/22 10:04:01;;;;;;;16.30;12.70;;;4.10;93.20;;;;;;4828418;29;20975;-92
2021/12/22 10:06:29;;;;;;;16.30;12.70;;;4.00;93.10;;;;;;4836468;29;21901;-93
2021/12/22 10:09:02;;;;;;;16.70;13.00;;;4.70;93.00;;;;;;4833624;29;21020;-94
2021/12/22 10:11:44;;;;;;;16.73;13.10;;;4.50;92.60;;;;;;4835818;29;20465;-87
2021/12/22 10:14:46;;;;;;;17.80;13.00;;;5.10;93.90;;;;;;4850546;29;20796;-91
2021/12/22 10:17:38;;;;;;;18.00;13.77;;;5.80;91.30;;;;;;4840877;29;20513;-94
2021/12/22 10:20:13;;;;;;;17.40;13.63;;;6.50;90.40;;;;;;4849439;29;20470;-96
2021/12/22 10:22:48;;;;;;;15.50;12.63;;;6.70;87.70;;;;;;4850234;29;20656;-94
2021/12/22 10:25:18;;;;;;;16.17;13.20;;;6.80;84.70;;;;;;4856882;29;21056;-96
2021/12/22 10:27:57;;;;;;;16.90;13.17;;;6.70;84.60;;;;;;4852391;29;20557;-92
2021/12/22 10:30:36;;;;;;;16.97;12.77;;;7.50;83.80;;;;;;4837038;29;20511;-94
2021/12/22 10:33:22;;;;;;;21.43;15.33;;;8.60;80.00;;;;;;4834853;29;20456;-96
2021/12/22 10:36:00;;;;;;;17.23;13.50;;;9.50;75.00;;;;;;4848016;29;20502;-93
2021/12/22 10:38:29;;;;;;;15.33;12.90;;;9.40;72.30;;;;;;4868071;29;20469;-95
2021/12/22 10:41:02;;;;;;;17.87;14.10;;;9.60;69.40;;;;;;4850780;29;20546;-93
2021/12/22 10:43:31;;;;;;;16.80;13.47;;;9.30;70.60;;;;;;4839942;29;21367;-94
2021/12/22 10:46:01;;;;;;;15.93;13.90;;;9.60;68.70;;;;;;4844612;29;20466;-96
2021/12/22 10:51:40;;;;;;;14.70;13.20;;;9.10;68.30;;;;;;4926688;24;20508;-96
2021/12/22 10:54:17;;;;;;;16.83;13.53;;;9.00;69.60;;;;;;4822899;29;20523;-95
2021/12/22 10:56:47;;;;;;;16.50;14.13;;;9.50;67.70;;;;;;4837925;29;20470;-94
2021/12/22 10:59:17;;;;;;;16.03;13.63;;;10.30;66.10;;;;;;4811421;29;21117;-96
2021/12/22 11:01:57;;;;;;;18.23;13.60;;;10.80;63.80;;;;;;4809302;29;20455;-95
2021/12/22 11:04:27;;;;;;;17.30;14.40;;;11.80;59.80;;;;;;4809387;29;20509;-95
2021/12/22 11:07:07;;;;;;;17.50;14.80;;;11.10;58.60;;;;;;4816398;29;20490;-93
2021/12/22 11:09:36;;;;;;;15.37;13.70;;;10.40;60.70;;;;;;4799741;29;21229;-93
2021/12/22 11:12:03;;;;;;;16.83;14.13;;;10.70;61.70;;;;;;4820301;29;20823;-94
2021/12/22 11:14:33;;;;;;;17.90;16.00;;;12.00;58.70;;;;;;4800243;29;20455;-96
2021/12/22 11:17:08;;;;;;;18.00;16.20;;;13.30;57.40;;;;;;4834018;29;20482;-96
2021/12/22 11:19:38;;;;;;;17.50;14.80;;;13.00;56.30;;;;;;4816523;29;20558;-96
2021/12/22 11:24:40;;;;;;;17.27;15.33;;;12.00;58.10;;;;;;4835917;29;20487;-96
2021/12/22 11:27:08;;;;;;;18.70;16.70;;;11.90;57.70;;;;;;4830260;29;20523;-96
2021/12/22 11:29:36;;;;;;;16.97;15.27;;;13.20;57.80;;;;;;4848992;29;21119;-96
2021/12/22 11:32:04;;;;;;;16.70;14.90;;;13.70;54.10;;;;;;4828331;29;20462;-95
2021/12/22 11:34:35;;;;;;;17.07;15.37;;;13.50;56.00;;;;;;4816501;29;20554;-93
2021/12/22 11:37:03;;;;;;;19.93;17.93;;;14.20;52.80;;;;;;4791385;29;20467;-92
2021/12/22 11:39:31;;;;;;;18.30;16.40;;;13.90;53.40;;;;;;4797522;29;20467;-95
2021/12/22 11:41:59;;;;;;;18.20;16.40;;;12.70;55.00;;;;;;4789968;29;20713;-93
2021/12/22 11:44:29;;;;;;;19.03;16.10;;;13.00;55.70;;;;;;4800252;29;20561;-93
2021/12/22 11:46:58;;;;;;;18.27;16.23;;;13.00;55.70;;;;;;4800509;29;20483;-95
2021/12/22 11:49:24;;;;;;;18.33;16.20;;;11.00;58.90;;;;;;4816782;29;20732;-94
2021/12/22 11:51:50;;;;;;;17.27;15.20;;;10.10;60.20;;;;;;4819174;29;20473;-96
2021/12/22 11:54:16;;;;;;;18.00;14.40;;;10.30;62.40;;;;;;4813096;29;20459;-96
2021/12/22 11:56:50;;;;;;;15.33;13.73;;;11.50;60.80;;;;;;4801122;29;21999;-93
2021/12/22 11:59:36;;;;;;;16.00;14.30;;;12.80;57.40;;;;;;4818243;29;21222;-95
2021/12/22 12:02:34;;;;;;;16.10;14.40;;;12.90;57.20;;;;;;4799923;29;21231;-93
2021/12/22 12:05:13;;;;;;;19.50;15.67;;;13.80;55.50;;;;;;4821467;29;21117;-92
2021/12/22 12:07:41;;;;;;;17.03;14.77;;;15.00;53.50;;;;;;4825267;29;20462;-93
2021/12/22 12:10:45;;;;;;;16.83;15.33;;;15.20;53.40;;;;;;4810744;29;20290;-91
2021/12/22 12:13:24;;;;;;;17.03;15.30;;;15.00;51.80;;;;;;4822268;29;20458;-93
2021/12/22 12:21:56;;;;;;;17.20;15.40;;;14.20;53.40;;;;;;4826909;29;20925;-90
2021/12/22 12:24:39;;;;;;;16.80;15.10;;;13.30;53.60;;;;;;4831154;29;20550;-92
2021/12/22 12:27:30;;;;;;;18.47;16.50;;;12.90;54.70;;;;;;4809440;29;21027;-91
2021/12/22 12:30:10;;;;;;;17.00;15.30;;;14.10;52.80;;;;;;4803308;29;20634;-92
2021/12/22 12:32:39;;;;;;;18.20;16.30;;;14.20;52.90;;;;;;4809659;29;20519;-94
2021/12/22 12:35:51;;;;;;;18.00;16.13;;;15.10;52.30;;;;;;4823253;29;20478;-96
2021/12/22 12:38:27;;;;;;;17.00;15.00;;;15.60;51.40;;;;;;4772108;29;20485;-89
2021/12/22 12:41:00;;;;;;;16.43;14.83;;;15.40;50.00;;;;;;4768579;29;20553;-91
2021/12/22 12:46:21;;;;;;;15.07;13.57;;;13.50;51.90;;;;;;4823469;29;21061;-93
2021/12/22 12:49:08;;;;;;;17.37;15.53;;;13.00;54.70;;;;;;4808191;29;20554;-91
2021/12/22 12:51:37;;;;;;;15.73;14.23;;;14.10;52.90;;;;;;4815111;29;20471;-94
2021/12/22 12:54:10;;;;;;;16.23;14.63;;;15.40;51.10;;;;;;4827689;29;22121;-92
2021/12/22 12:57:04;;;;;;;15.70;13.40;;;15.90;50.30;;;;;;4809110;29;21519;-87
2021/12/22 12:59:41;;;;;;;16.40;14.67;;;15.70;51.10;;;;;;4824411;29;20562;-94
2021/12/22 13:02:27;;;;;;;16.77;15.13;;;15.50;50.70;;;;;;4827793;29;20475;-93
2021/12/22 13:05:06;;;;;;;15.60;13.90;;;15.40;49.60;;;;;;4814312;29;20451;-92
2021/12/22 13:07:33;;;;;;;13.83;12.43;;;14.00;50.20;;;;;;4813325;29;20452;-91
2021/12/22 13:10:03;;;;;;;16.40;13.90;;;13.90;51.60;;;;;;4810202;29;20495;-90
2021/12/22 13:18:39;;;;;;;16.37;14.70;;;14.90;51.00;;;;;;4807702;29;20521;-88
2021/12/22 13:21:26;;;;;;;16.77;14.70;;;13.10;52.10;;;;;;4804687;29;20562;-94
2021/12/22 13:26:43;;;;;;;15.60;14.00;;;12.30;55.50;;;;;;4814903;29;21472;-93
2021/12/22 13:30:23;;;;;;;16.30;14.57;;;13.80;54.10;;;;;;4818045;29;20505;-94
2021/12/22 13:33:06;;;;;;;16.13;14.47;;;14.30;51.10;;;;;;4796089;29;20479;-95
2021/12/22 13:36:05;;;;;;;;;;;;;;;;;;;;;
2021/12/22 13:39:04;;;;;;;15.83;14.23;;;12.10;54.10;;;;;;4819745;29;20502;-93
2021/12/22 13:41:54;;;;;;;17.93;14.30;;;12.50;54.50;;;;;;4818489;29;20467;-93